Sieper, LA (71472)

4:48 PM CDT on August 27, 2016 (GMT -0500)
Elmer Community | | Change Station
Active Advisory: Areal Flood Advisory

Elev 180 ft 31.10 °N, 92.70 °W | Updated 11 seconds ago

Light Rain
Light Rain
76.3 °F
Feels Like 76 °F
N
0.0
Wind Variable Wind from WSW
Gusts 0.0 mph

Today
High -- | Low -- °F
--% Chance of Precip.
Yesterday
High -- | Low -- °F
Precip. -- in
Pressure 30.02 in
Visibility 8.0 miles
Clouds Scattered Clouds 3000 ft
Mostly Cloudy 8000 ft
Overcast 9500 ft
Heat Index 76 °F
Dew Point 75 °F
Humidity 96%
Rainfall 0.56 in
Snow Depth Not available.
6:44 AM 7:39 PM
Waning Crescent, 21% visible
METAR KBKB 272054Z AUTO 00000KT 8SM -RA SCT030 BKN080 OVC095 26/23 A2994 RMK AO2 RAB30 TSB1959E29 SLP164 P0000 60000 T02560228 56010 $
Pressure 30.02 in
Visibility 8.0 miles
Clouds Scattered Clouds 3000 ft
Mostly Cloudy 8000 ft
Overcast 9500 ft
Heat Index 76 °F
Dew Point 75 °F
Humidity 96%
Rainfall 0.56 in
Snow Depth Not available.
6:44 AM 7:39 PM
Waning Crescent, 21% visible
METAR KBKB 272054Z AUTO 00000KT 8SM -RA SCT030 BKN080 OVC095 26/23 A2994 RMK AO2 RAB30 TSB1959E29 SLP164 P0000 60000 T02560228 56010 $

10-Day Weather Forecast

Almanac

Astronomy

Aug. 27, 2016 Rise Set
Actual Time
Civil Twilight
Nautical Twilight
Astronomical Twilight
Moon
Length of Visible Light
Length of Day
Tomorrow will be .
, % of the Moon is Illuminated

Today's Extremes

State Highs State Lows

Community

WunderPhotos

Upload Photos

1,935,455 photos uploaded!

WunderBlog® & News

Nearby

Air Quality

  Air Quality AQ Index Pollutant
Not available.

Snow Depth

Station Depth Elevation

Earthquake Activity

City Distance Mag. Time & Date
Minimum magnitude displayed is 2.5.

Coastal Water Temperatures

Place Temperature

Stations

Nearby Weather Stations

Station Location Temp. Windchill Dew Point Humidity Wind Precip. Elev Updated Type
                   

Watches & Warnings

Areal Flood Advisory
Issued: 4:16 PM CDT Aug. 27, 2016 – National Weather Service

The National Weather Service in Lake Charles has issued a

* Flood Advisory for...
south central Rapides Parish in central Louisiana...
northwestern Evangeline Parish in central Louisiana...

* until 615 PM CDT

* at 416 PM CDT... Doppler radar indicated heavy rain due to
thunderstorms. This will cause minor flooding in the advisory area.
Up to three inches of rain have already fallen.

* Some locations that will experience flooding include...
Glenmora... Lecompte... Woodworth... Forest Hill and McNary.

Lat... Lon 3116 9240 3090 9227 3090 9259 3115 9267


25